WSAP METAR and TAF | Updated Today

WSAP METAR

Paya Lebar Air Base

Observation time: 15 min. ago

WSAP 060900Z 02013KT 9999 FEW020 SCT150 30/20 Q1009

Need help? Read our tutorial on how to read METARs or read the parsed version below.

Paya Lebar Air Base (WSAP) METAR

  • Weather conditions on Mon, 06 Dec 2021 09:00:00 +0000 (15 min. ago):
  • Present conditions: Dry
  • Clouds: A few at 610 meters; scattered at 4572 meters
  • Visibility: Greater than 10 km
  • Wind: 20 degrees at 13 knots
  • Temperature: 30 celsius
  • Dew point: 20 celsius
  • Pressure: 1009 millibars
  • Remarks: None


Useful to know...

WSAP TAF

Paya Lebar Air Base

TAF AMD WSAP 060800Z 0608/0712 01010KT 9999 FEW015 SCT020
Observation time: 75 min. ago
Need help? Read our tutorial on how to read TAFs or read the parsed version below.

Parsed version of TAF for Paya Lebar Air Base (WSAP)

  • From 06 December at 08:00 UTC, to day 07 of the month at 12:00 UTC
  • Clouds: A few at 457 meters; scattered at 610 meters
  • Visibility: Greater than 10 km
  • Wind: 10 degrees at 10